createdAt,value
2022-10-18T00:00:07.710Z,8.14
2022-10-18T00:02:39.799Z,8.25
2022-10-18T00:05:09.100Z,8.21
2022-10-18T00:07:37.774Z,8.33
2022-10-18T00:10:07.532Z,8.32
2022-10-18T00:12:36.980Z,8.40
2022-10-18T00:15:09.170Z,8.38
2022-10-18T00:17:38.771Z,8.38
2022-10-18T00:20:08.489Z,8.13
2022-10-18T00:22:38.642Z,7.94
2022-10-18T00:25:08.907Z,8.10
2022-10-18T00:27:38.152Z,8.17
2022-10-18T00:30:09.367Z,8.01
2022-10-18T00:32:38.847Z,7.91
2022-10-18T00:35:09.340Z,8.15
2022-10-18T00:37:38.193Z,8.00
2022-10-18T00:40:07.852Z,7.90
2022-10-18T00:42:38.332Z,7.92
2022-10-18T00:45:21.302Z,7.87
2022-10-18T00:47:59.248Z,7.95
2022-10-18T00:50:31.450Z,7.90
2022-10-18T00:53:03.925Z,8.05
2022-10-18T00:55:34.718Z,7.98
2022-10-18T00:58:04.711Z,7.84
2022-10-18T01:00:39.012Z,7.84
2022-10-18T01:03:09.354Z,7.92
2022-10-18T01:05:41.802Z,7.66
2022-10-18T01:08:35.024Z,7.65
2022-10-18T01:11:15.303Z,7.71
2022-10-18T01:14:02.643Z,7.64
2022-10-18T01:16:40.994Z,7.57
2022-10-18T01:19:26.780Z,7.69
2022-10-18T01:22:00.656Z,7.58
2022-10-18T01:24:47.579Z,7.52
2022-10-18T01:27:43.074Z,7.47
2022-10-18T01:30:51.189Z,7.57
2022-10-18T01:33:39.203Z,7.61
2022-10-18T01:36:15.002Z,7.74
2022-10-18T01:38:45.356Z,7.75
2022-10-18T01:41:15.949Z,7.89
2022-10-18T01:43:48.014Z,7.84
2022-10-18T01:46:20.946Z,7.79
2022-10-18T01:48:53.030Z,7.79
2022-10-18T01:51:24.367Z,7.66
2022-10-18T01:53:53.136Z,7.76
2022-10-18T01:56:32.130Z,7.73
2022-10-18T01:59:29.776Z,7.69
2022-10-18T02:02:07.934Z,7.73
2022-10-18T02:04:44.162Z,7.66
2022-10-18T02:07:25.152Z,7.66
2022-10-18T02:10:02.716Z,7.73
2022-10-18T02:12:35.170Z,7.69
2022-10-18T02:15:06.327Z,7.67
2022-10-18T02:17:34.830Z,7.65
2022-10-18T02:20:08.078Z,7.68
2022-10-18T02:22:39.575Z,7.71
2022-10-18T02:25:12.561Z,7.71
2022-10-18T02:27:41.694Z,7.83
2022-10-18T02:30:12.049Z,7.82
2022-10-18T02:32:47.339Z,7.80
2022-10-18T02:35:22.349Z,7.86
2022-10-18T02:37:53.952Z,7.93
2022-10-18T02:40:22.800Z,7.81
2022-10-18T02:42:57.020Z,7.81
2022-10-18T02:45:27.535Z,7.82
2022-10-18T02:47:56.333Z,7.87
2022-10-18T02:50:26.503Z,7.99
2022-10-18T02:52:55.098Z,7.85
2022-10-18T02:55:23.765Z,8.04
2022-10-18T02:57:52.353Z,7.92
2022-10-18T03:00:21.029Z,7.80
2022-10-18T03:02:50.738Z,7.78
2022-10-18T03:05:19.353Z,8.00
2022-10-18T03:07:50.179Z,7.88
2022-10-18T03:10:21.905Z,7.85
2022-10-18T03:12:53.889Z,7.78
2022-10-18T03:15:25.926Z,7.80
2022-10-18T03:17:57.546Z,7.92
2022-10-18T03:20:30.125Z,7.90
2022-10-18T03:23:21.241Z,7.96
2022-10-18T03:25:54.086Z,7.98
2022-10-18T03:28:26.252Z,8.04
2022-10-18T03:31:04.207Z,8.17
2022-10-18T03:33:39.180Z,8.15
2022-10-18T03:36:14.119Z,8.11
2022-10-18T03:38:50.024Z,8.22
2022-10-18T03:41:25.665Z,8.16
2022-10-18T03:43:57.325Z,8.48
2022-10-18T03:46:29.023Z,8.34
2022-10-18T03:49:01.946Z,8.09
2022-10-18T03:51:38.708Z,8.17
2022-10-18T03:54:14.621Z,8.28
2022-10-18T03:56:49.685Z,8.22
2022-10-18T03:59:22.509Z,8.30
2022-10-18T04:01:53.669Z,8.25
2022-10-18T04:04:30.065Z,8.26
2022-10-18T04:07:01.904Z,8.34
2022-10-18T04:09:35.406Z,8.39
2022-10-18T04:12:07.281Z,8.45
2022-10-18T04:14:41.529Z,8.48
2022-10-18T04:17:13.526Z,8.47
2022-10-18T04:19:47.648Z,8.36
2022-10-18T04:22:22.525Z,8.30
2022-10-18T04:24:54.338Z,8.24
2022-10-18T04:27:26.262Z,8.22
2022-10-18T04:29:55.350Z,8.26
2022-10-18T04:32:24.548Z,8.35
2022-10-18T04:34:54.577Z,8.49
2022-10-18T04:37:25.117Z,8.64
2022-10-18T04:39:55.683Z,8.83
2022-10-18T04:42:24.964Z,8.96
2022-10-18T04:44:53.882Z,9.14
2022-10-18T04:47:25.543Z,9.31
2022-10-18T04:49:54.571Z,9.44
2022-10-18T04:52:23.539Z,9.51
2022-10-18T04:54:52.480Z,9.60
2022-10-18T04:57:22.900Z,9.77
2022-10-18T04:59:52.486Z,9.84
2022-10-18T05:02:21.305Z,9.92
2022-10-18T05:04:50.322Z,10.04
2022-10-18T05:07:19.161Z,10.12
2022-10-18T05:09:48.086Z,10.17
2022-10-18T05:12:16.810Z,10.24
2022-10-18T05:14:47.297Z,10.35
2022-10-18T05:17:16.369Z,10.33
2022-10-18T05:19:47.789Z,10.40
2022-10-18T05:22:19.229Z,10.47
2022-10-18T05:24:48.179Z,10.51
2022-10-18T05:27:17.371Z,10.57
2022-10-18T05:29:47.901Z,10.58
2022-10-18T05:32:17.028Z,10.61
2022-10-18T05:34:45.822Z,10.67
2022-10-18T05:37:14.791Z,10.67
2022-10-18T05:39:44.680Z,10.74
2022-10-18T05:42:13.827Z,10.73
2022-10-18T05:44:42.560Z,10.74
2022-10-18T05:47:12.833Z,10.75
2022-10-18T05:49:41.617Z,10.75
2022-10-18T05:52:10.417Z,10.80
2022-10-18T05:54:39.178Z,10.82
2022-10-18T05:57:07.978Z,10.79
2022-10-18T05:59:36.740Z,10.79
2022-10-18T06:02:05.409Z,10.81
2022-10-18T06:04:36.226Z,10.88
2022-10-18T06:07:05.079Z,10.89
2022-10-18T06:09:33.669Z,10.84
2022-10-18T06:12:02.432Z,10.83
2022-10-18T06:14:31.032Z,10.79
2022-10-18T06:16:59.716Z,10.72
2022-10-18T06:19:28.292Z,10.80
2022-10-18T06:21:58.390Z,10.79
2022-10-18T06:24:27.587Z,10.81
2022-10-18T06:26:56.362Z,10.79
2022-10-18T06:29:25.103Z,10.78
2022-10-18T06:31:53.941Z,10.74
2022-10-18T06:34:22.878Z,10.71
2022-10-18T06:36:55.003Z,10.71
2022-10-18T06:39:28.238Z,10.72
2022-10-18T06:41:56.991Z,10.81
2022-10-18T06:44:26.285Z,10.75
2022-10-18T06:46:55.043Z,10.75
2022-10-18T06:49:23.611Z,10.73
2022-10-18T06:51:52.327Z,10.71
2022-10-18T06:54:21.265Z,10.69
2022-10-18T06:56:51.379Z,10.73
2022-10-18T06:59:20.191Z,10.69
2022-10-18T07:01:48.884Z,10.74
2022-10-18T07:04:17.519Z,10.71
2022-10-18T07:06:46.248Z,10.70
2022-10-18T07:09:14.989Z,10.70
2022-10-18T07:11:43.712Z,10.69
2022-10-18T07:14:16.287Z,10.71
2022-10-18T07:16:45.348Z,10.70
2022-10-18T07:19:15.124Z,10.73
2022-10-18T07:21:43.923Z,10.76
2022-10-18T07:24:12.632Z,10.76
2022-10-18T07:26:42.660Z,10.76
2022-10-18T07:29:14.548Z,10.80
2022-10-18T07:31:43.222Z,10.81
2022-10-18T07:34:14.637Z,10.79
2022-10-18T07:36:43.555Z,10.84
2022-10-18T07:39:12.432Z,10.82
2022-10-18T07:41:41.211Z,10.83
2022-10-18T07:44:09.998Z,10.81
2022-10-18T07:46:40.675Z,10.85
2022-10-18T07:49:09.348Z,10.87
2022-10-18T07:51:38.060Z,10.92
2022-10-18T07:54:06.888Z,10.93
2022-10-18T07:56:35.703Z,10.94
2022-10-18T07:59:04.382Z,10.95
2022-10-18T08:01:33.147Z,10.95
2022-10-18T08:04:07.810Z,10.94
2022-10-18T08:06:37.969Z,10.97
2022-10-18T08:09:07.263Z,10.98
2022-10-18T08:11:35.940Z,11.00
2022-10-18T08:14:04.654Z,11.00
2022-10-18T08:19:08.472Z,10.94
2022-10-18T08:21:37.223Z,10.90
2022-10-18T08:24:06.721Z,10.90
2022-10-18T08:26:35.751Z,10.89
2022-10-18T08:29:17.923Z,10.89
2022-10-18T08:31:51.636Z,10.89
2022-10-18T08:34:24.107Z,10.88
2022-10-18T08:36:52.945Z,10.92
2022-10-18T08:39:21.914Z,10.90
2022-10-18T08:42:10.404Z,10.90
2022-10-18T08:44:46.109Z,10.88
2022-10-18T08:47:18.525Z,10.86
2022-10-18T08:49:52.011Z,10.86
2022-10-18T08:52:34.530Z,10.83
2022-10-18T08:55:05.500Z,10.81
2022-10-18T08:57:34.766Z,10.82
2022-10-18T09:00:09.582Z,10.83
2022-10-18T09:02:51.557Z,10.83
2022-10-18T09:05:29.750Z,10.79
2022-10-18T09:08:40.040Z,10.77
2022-10-18T09:11:20.095Z,10.80
2022-10-18T09:14:04.509Z,10.77
2022-10-18T09:16:41.292Z,10.77
2022-10-18T09:19:18.963Z,10.82
2022-10-18T09:21:54.060Z,10.86
2022-10-18T09:24:29.176Z,10.88
2022-10-18T09:27:02.922Z,11.01
2022-10-18T09:29:44.844Z,11.27
2022-10-18T09:32:24.692Z,11.41
2022-10-18T09:34:59.405Z,11.31
2022-10-18T09:37:33.878Z,11.27
2022-10-18T09:40:16.582Z,11.18
2022-10-18T09:42:54.816Z,11.11
2022-10-18T09:45:29.205Z,11.02
2022-10-18T09:48:08.711Z,10.98
2022-10-18T09:50:42.703Z,11.02
2022-10-18T09:53:23.132Z,11.05
2022-10-18T09:56:02.153Z,11.03
2022-10-18T09:58:43.003Z,11.03
2022-10-18T10:01:14.585Z,11.01
2022-10-18T10:03:43.986Z,11.07
2022-10-18T10:06:25.645Z,11.11
2022-10-18T10:09:06.858Z,11.14
2022-10-18T10:11:38.788Z,11.17
2022-10-18T10:14:23.792Z,11.15
2022-10-18T10:16:55.553Z,11.09
2022-10-18T10:19:33.753Z,11.04
2022-10-18T10:22:07.246Z,11.09
2022-10-18T10:24:53.050Z,11.09
2022-10-18T10:27:26.494Z,11.06
2022-10-18T10:30:01.561Z,11.12
2022-10-18T10:32:46.383Z,11.09
2022-10-18T10:35:34.024Z,11.06
2022-10-18T10:38:25.324Z,11.08
2022-10-18T10:40:55.523Z,11.03
2022-10-18T10:43:42.250Z,11.02
2022-10-18T10:46:13.507Z,10.97
2022-10-18T10:48:48.611Z,10.93
2022-10-18T10:51:20.667Z,10.89
2022-10-18T10:53:52.945Z,10.85
2022-10-18T10:56:29.238Z,10.86
2022-10-18T10:59:01.843Z,10.83
2022-10-18T11:01:33.480Z,10.81
2022-10-18T11:04:04.577Z,10.76
2022-10-18T11:06:53.665Z,10.76
2022-10-18T11:09:32.536Z,10.73
2022-10-18T11:12:18.153Z,10.69
2022-10-18T11:14:54.305Z,10.59
2022-10-18T11:17:33.263Z,10.53
2022-10-18T11:20:12.009Z,10.44
2022-10-18T11:22:45.476Z,10.38
2022-10-18T11:25:18.287Z,10.37
2022-10-18T11:27:56.629Z,10.37
2022-10-18T11:30:39.169Z,10.38
2022-10-18T11:33:28.699Z,10.41
2022-10-18T11:36:12.098Z,10.41
2022-10-18T11:38:50.240Z,10.38
2022-10-18T11:41:32.530Z,10.40
2022-10-18T11:44:04.790Z,10.43
2022-10-18T11:46:55.585Z,10.45
2022-10-18T11:49:53.267Z,10.45
2022-10-18T11:52:30.069Z,10.47
2022-10-18T11:55:12.289Z,10.43
2022-10-18T11:57:56.287Z,10.28
2022-10-18T12:00:39.559Z,10.17
2022-10-18T12:03:35.212Z,10.13
2022-10-18T12:06:07.968Z,10.10
2022-10-18T12:08:41.512Z,10.07
2022-10-18T12:11:16.039Z,10.04
2022-10-18T12:13:50.151Z,10.00
2022-10-18T12:16:45.450Z,9.96
2022-10-18T12:19:23.486Z,9.89
2022-10-18T12:21:58.348Z,9.86
2022-10-18T12:24:30.128Z,9.76
2022-10-18T12:27:02.861Z,9.73
2022-10-18T12:29:36.889Z,9.70
2022-10-18T12:32:10.780Z,9.65
2022-10-18T12:34:45.630Z,9.57
2022-10-18T12:37:48.902Z,9.50
2022-10-18T12:40:24.869Z,9.46
2022-10-18T12:42:55.055Z,9.50
2022-10-18T12:45:30.563Z,9.47
2022-10-18T12:48:03.984Z,9.43
2022-10-18T12:50:36.294Z,9.37
2022-10-18T12:53:16.491Z,9.42
2022-10-18T12:55:46.865Z,9.35
2022-10-18T12:58:27.809Z,9.36
2022-10-18T13:01:02.623Z,9.38
2022-10-18T13:03:41.467Z,9.38
2022-10-18T13:06:10.271Z,9.41
2022-10-18T13:08:42.290Z,9.43
2022-10-18T13:11:31.349Z,9.42
2022-10-18T13:14:18.624Z,9.40
2022-10-18T13:16:50.731Z,9.38
2022-10-18T13:19:27.080Z,9.37
2022-10-18T13:22:12.667Z,9.37
2022-10-18T13:24:46.887Z,9.33
2022-10-18T13:27:42.208Z,9.32
2022-10-18T13:30:34.653Z,9.32
2022-10-18T13:33:22.424Z,9.32
2022-10-18T13:35:58.268Z,9.26
2022-10-18T13:39:03.919Z,9.21
2022-10-18T13:41:35.555Z,9.20
2022-10-18T13:44:30.708Z,9.19
2022-10-18T13:47:35.558Z,9.13
2022-10-18T13:50:28.446Z,9.13
2022-10-18T13:53:36.112Z,9.15
2022-10-18T13:56:41.327Z,9.12
2022-10-18T13:59:29.171Z,9.09
2022-10-18T14:02:30.798Z,9.05
2022-10-18T14:05:25.746Z,9.02
2022-10-18T14:08:01.307Z,9.00
2022-10-18T14:11:01.277Z,8.97
2022-10-18T14:13:38.205Z,8.95
2022-10-18T14:16:12.265Z,8.93
2022-10-18T14:18:44.240Z,8.86
2022-10-18T14:21:21.991Z,8.85
2022-10-18T14:23:52.417Z,8.81
2022-10-18T14:26:23.093Z,8.79
2022-10-18T14:29:06.192Z,8.78
2022-10-18T14:31:36.098Z,8.72
2022-10-18T14:34:05.283Z,8.69
2022-10-18T14:36:39.201Z,8.68
2022-10-18T14:39:16.898Z,8.64
2022-10-18T14:41:52.368Z,8.59
2022-10-18T14:44:23.563Z,8.57
2022-10-18T14:46:53.979Z,8.57
2022-10-18T14:49:22.808Z,8.53
2022-10-18T14:51:53.382Z,8.50
2022-10-18T14:54:29.048Z,8.47
2022-10-18T14:57:02.876Z,8.47
2022-10-18T14:59:32.302Z,8.44
2022-10-18T15:02:05.222Z,8.37
2022-10-18T15:04:34.105Z,8.38
2022-10-18T15:07:04.775Z,8.40
2022-10-18T15:09:35.819Z,8.35
2022-10-18T15:12:07.339Z,8.36
2022-10-18T15:14:37.110Z,8.34
2022-10-18T15:17:17.155Z,8.31
2022-10-18T15:19:59.326Z,8.31
2022-10-18T15:22:32.671Z,8.29
2022-10-18T15:25:13.021Z,8.26
2022-10-18T15:27:46.835Z,8.20
2022-10-18T15:30:24.435Z,8.17
2022-10-18T15:32:55.039Z,8.14
2022-10-18T15:35:28.709Z,8.12
2022-10-18T15:37:58.930Z,8.11
2022-10-18T15:40:39.261Z,8.10
2022-10-18T15:43:36.520Z,8.07
2022-10-18T15:46:07.420Z,8.07
2022-10-18T15:48:37.595Z,8.08
2022-10-18T15:51:07.622Z,8.05
2022-10-18T15:53:44.019Z,8.03
2022-10-18T15:56:28.993Z,8.01
2022-10-18T15:59:01.022Z,8.00
2022-10-18T16:01:36.102Z,7.99
2022-10-18T16:04:09.737Z,7.98
2022-10-18T16:06:38.919Z,8.00
2022-10-18T16:09:07.657Z,8.03
2022-10-18T16:11:36.318Z,8.03
2022-10-18T16:14:06.448Z,8.05
2022-10-18T16:16:35.312Z,8.05
2022-10-18T16:19:04.888Z,8.05
2022-10-18T16:21:36.124Z,8.07
2022-10-18T16:24:06.077Z,8.08
2022-10-18T16:26:35.495Z,8.09
2022-10-18T16:29:06.778Z,8.11
2022-10-18T16:31:36.341Z,8.11
2022-10-18T16:34:04.935Z,8.09
2022-10-18T16:36:35.330Z,8.04
2022-10-18T16:39:08.303Z,7.98
2022-10-18T16:41:37.062Z,7.98
2022-10-18T16:44:07.327Z,7.97
2022-10-18T16:46:36.925Z,7.98
2022-10-18T16:49:06.512Z,7.98
2022-10-18T16:51:35.513Z,7.98
2022-10-18T16:54:04.196Z,8.01
2022-10-18T16:56:33.933Z,8.02
2022-10-18T16:59:02.665Z,8.02
2022-10-18T17:01:32.854Z,8.04
2022-10-18T17:04:01.586Z,8.00
2022-10-18T17:06:31.973Z,7.97
2022-10-18T17:09:01.268Z,7.96
2022-10-18T17:11:30.263Z,7.91
2022-10-18T17:13:59.012Z,7.87
2022-10-18T17:19:07.373Z,7.76
2022-10-18T17:21:36.499Z,7.71
2022-10-18T17:24:06.431Z,7.67
2022-10-18T17:26:35.505Z,7.60
2022-10-18T17:29:07.167Z,7.57
2022-10-18T17:31:35.996Z,7.52
2022-10-18T17:34:06.250Z,7.47
2022-10-18T17:36:36.020Z,7.39
2022-10-18T17:39:05.771Z,7.34
2022-10-18T17:41:34.409Z,7.27
2022-10-18T17:44:04.473Z,7.23
2022-10-18T17:46:33.209Z,7.19
2022-10-18T17:49:01.891Z,7.19
2022-10-18T17:51:31.898Z,7.16
2022-10-18T17:54:00.541Z,7.13
2022-10-18T17:56:33.510Z,7.09
2022-10-18T17:59:02.326Z,7.14
2022-10-18T18:01:30.931Z,7.16
2022-10-18T18:04:01.551Z,7.19
2022-10-18T18:06:34.262Z,7.22
2022-10-18T18:09:07.119Z,7.23
2022-10-18T18:11:36.605Z,7.30
2022-10-18T18:14:11.100Z,7.28
2022-10-18T18:16:42.060Z,7.30
2022-10-18T18:19:11.471Z,7.31
2022-10-18T18:21:42.543Z,7.31
2022-10-18T18:24:11.441Z,7.31
2022-10-18T18:26:40.781Z,7.31
2022-10-18T18:29:09.600Z,7.30
2022-10-18T18:31:40.253Z,7.31
2022-10-18T18:34:14.312Z,7.31
2022-10-18T18:36:45.070Z,7.32
2022-10-18T18:39:21.269Z,7.32
2022-10-18T18:41:51.503Z,7.34
2022-10-18T18:44:21.290Z,7.32
2022-10-18T18:46:50.395Z,7.32
2022-10-18T18:49:19.008Z,7.31
2022-10-18T18:51:49.112Z,7.32
2022-10-18T18:54:17.906Z,7.33
2022-10-18T18:56:47.080Z,7.33
2022-10-18T18:59:16.285Z,7.32
2022-10-18T19:01:45.746Z,7.30
2022-10-18T19:04:14.627Z,7.31
2022-10-18T19:06:45.123Z,7.30
2022-10-18T19:09:20.772Z,7.28
2022-10-18T19:11:50.795Z,7.28
2022-10-18T19:14:19.469Z,7.28
2022-10-18T19:16:48.769Z,7.26
2022-10-18T19:19:19.363Z,7.27
2022-10-18T19:21:50.151Z,7.25
2022-10-18T19:24:21.191Z,7.24
2022-10-18T19:26:51.132Z,7.19
2022-10-18T19:29:21.839Z,7.16
2022-10-18T19:31:51.930Z,7.13
2022-10-18T19:34:22.549Z,7.09
2022-10-18T19:36:51.672Z,7.07
2022-10-18T19:39:23.552Z,7.06
2022-10-18T19:41:55.358Z,7.02
2022-10-18T19:44:27.628Z,7.02
2022-10-18T19:46:56.749Z,7.05
2022-10-18T19:49:25.309Z,7.03
2022-10-18T19:51:54.228Z,7.00
2022-10-18T19:54:24.460Z,7.02
2022-10-18T19:56:53.018Z,7.01
2022-10-18T19:59:22.828Z,7.00
2022-10-18T20:01:51.803Z,7.00
2022-10-18T20:04:20.341Z,7.00
2022-10-18T20:06:49.102Z,6.99
2022-10-18T20:09:20.428Z,7.00
2022-10-18T20:11:51.053Z,7.01
2022-10-18T20:14:20.324Z,7.01
2022-10-18T20:16:48.838Z,7.03
2022-10-18T20:19:17.566Z,7.03
2022-10-18T20:21:46.119Z,7.03
2022-10-18T20:24:14.684Z,7.03
2022-10-18T20:26:43.918Z,7.04
2022-10-18T20:29:14.237Z,7.04
2022-10-18T20:31:42.882Z,7.07
2022-10-18T20:34:13.411Z,7.07
2022-10-18T20:36:43.106Z,7.08
2022-10-18T20:39:11.816Z,7.08
2022-10-18T20:41:41.915Z,7.07
2022-10-18T20:44:16.943Z,7.07
2022-10-18T20:46:45.665Z,7.05
2022-10-18T20:49:16.519Z,7.06
2022-10-18T20:51:45.560Z,7.05
2022-10-18T20:54:14.296Z,7.05
2022-10-18T20:56:43.219Z,7.04
2022-10-18T20:59:12.397Z,7.03
2022-10-18T21:01:42.547Z,7.04
2022-10-18T21:04:12.295Z,7.02
2022-10-18T21:06:42.711Z,7.02
2022-10-18T21:09:14.421Z,7.02
2022-10-18T21:11:45.063Z,6.98
2022-10-18T21:14:15.614Z,6.99
2022-10-18T21:16:46.567Z,6.95
2022-10-18T21:19:16.683Z,6.95
2022-10-18T21:21:47.548Z,6.94
2022-10-18T21:24:16.192Z,6.94
2022-10-18T21:26:45.347Z,6.95
2022-10-18T21:29:18.098Z,6.95
2022-10-18T21:31:53.719Z,6.92
2022-10-18T21:34:22.750Z,6.88
2022-10-18T21:36:51.260Z,6.91
2022-10-18T21:39:21.984Z,6.90
2022-10-18T21:41:51.380Z,6.89
2022-10-18T21:44:20.325Z,6.87
2022-10-18T21:46:50.988Z,6.87
2022-10-18T21:49:19.831Z,6.90
2022-10-18T21:51:48.386Z,6.89
2022-10-18T21:54:17.783Z,6.88
2022-10-18T21:56:46.791Z,6.85
2022-10-18T21:59:15.827Z,6.87
2022-10-18T22:01:45.879Z,6.88
2022-10-18T22:04:22.042Z,6.91
2022-10-18T22:06:51.445Z,6.92
2022-10-18T22:09:21.318Z,6.90
2022-10-18T22:11:51.999Z,6.94
2022-10-18T22:14:21.300Z,6.89
2022-10-18T22:16:50.056Z,6.92
2022-10-18T22:19:20.685Z,6.95
2022-10-18T22:21:49.362Z,6.97
2022-10-18T22:24:18.142Z,7.00
2022-10-18T22:26:47.627Z,7.02
2022-10-18T22:29:18.234Z,7.02
2022-10-18T22:31:49.228Z,7.00
2022-10-18T22:34:18.481Z,7.01
2022-10-18T22:36:48.511Z,7.03
2022-10-18T22:39:17.696Z,7.01
2022-10-18T22:41:46.701Z,6.97
2022-10-18T22:44:16.369Z,6.93
2022-10-18T22:46:44.993Z,6.97
2022-10-18T22:49:14.121Z,7.02
2022-10-18T22:51:42.893Z,6.97
2022-10-18T22:54:13.041Z,7.02
2022-10-18T22:56:41.749Z,7.05
2022-10-18T22:59:10.444Z,7.10
2022-10-18T23:01:39.446Z,7.10
2022-10-18T23:04:08.110Z,7.08
2022-10-18T23:06:38.078Z,7.10
2022-10-18T23:09:09.855Z,7.07
2022-10-18T23:11:40.028Z,7.03
2022-10-18T23:14:08.872Z,6.97
2022-10-18T23:16:37.609Z,6.95
2022-10-18T23:19:06.627Z,6.95
2022-10-18T23:21:35.680Z,6.93
2022-10-18T23:24:04.689Z,6.95
2022-10-18T23:26:33.573Z,6.92
2022-10-18T23:29:03.746Z,6.88
2022-10-18T23:31:34.081Z,6.86
2022-10-18T23:34:05.268Z,6.85
2022-10-18T23:36:34.870Z,6.95
2022-10-18T23:39:04.067Z,6.92
2022-10-18T23:41:32.826Z,6.86
2022-10-18T23:44:02.944Z,6.89
2022-10-18T23:46:31.574Z,6.88
2022-10-18T23:49:00.205Z,6.84
2022-10-18T23:51:29.028Z,6.77
2022-10-18T23:53:57.654Z,6.80
2022-10-18T23:56:26.291Z,6.78
2022-10-18T23:58:54.901Z,6.74
